createdAt,value
2019-02-20T00:00:29.352Z,23.10
2019-02-20T00:03:03.154Z,23.10
2019-02-20T00:05:37.340Z,23.10
2019-02-20T00:08:09.712Z,23.00
2019-02-20T00:10:43.002Z,23.00
2019-02-20T00:13:34.934Z,23.00
2019-02-20T00:16:13.216Z,22.90
2019-02-20T00:24:46.632Z,22.90
2019-02-20T00:27:30.218Z,23.20
2019-02-20T00:32:55.745Z,25.10
2019-02-20T00:38:23.491Z,26.50
2019-02-20T00:41:04.264Z,26.90
2019-02-20T00:43:43.341Z,27.40
2019-02-20T00:52:24.236Z,28.40
2019-02-20T00:55:04.937Z,28.20
2019-02-20T00:57:41.586Z,27.40
2019-02-20T01:03:08.892Z,26.30
2019-02-20T01:11:24.673Z,25.40
2019-02-20T01:14:09.160Z,25.20
2019-02-20T01:16:45.689Z,25.10
2019-02-20T01:19:22.184Z,24.90
2019-02-20T01:22:07.194Z,24.80
2019-02-20T01:27:38.543Z,24.60
2019-02-20T01:33:21.621Z,24.30
2019-02-20T01:47:26.513Z,24.00
2019-02-20T01:52:54.113Z,23.80
2019-02-20T01:55:27.286Z,23.70
2019-02-20T02:00:57.747Z,23.70
2019-02-20T02:06:22.561Z,24.20
2019-02-20T02:09:14.007Z,25.20
2019-02-20T02:17:32.433Z,27.20
2019-02-20T02:20:20.025Z,26.80
2019-02-20T02:22:55.562Z,26.10
2019-02-20T02:25:45.490Z,25.60
2019-02-20T02:34:03.322Z,24.80
2019-02-20T02:36:45.244Z,24.60
2019-02-20T02:39:37.565Z,24.40
2019-02-20T02:42:12.177Z,24.30
2019-02-20T02:44:45.843Z,24.20
2019-02-20T02:50:23.292Z,24.00
2019-02-20T02:53:00.312Z,23.90
2019-02-20T02:55:39.834Z,23.80
2019-02-20T03:06:49.425Z,23.60
2019-02-20T03:12:15.310Z,23.40
2019-02-20T03:15:02.831Z,23.40
2019-02-20T03:23:40.269Z,23.20
2019-02-20T03:26:19.101Z,23.20
2019-02-20T03:31:42.546Z,23.00
2019-02-20T03:34:20.268Z,23.00
2019-02-20T03:37:04.023Z,23.00
2019-02-20T03:39:52.270Z,22.90
2019-02-20T03:53:53.831Z,22.70
2019-02-20T03:56:27.814Z,22.60
2019-02-20T03:59:07.231Z,22.60
2019-02-20T04:01:46.067Z,22.60
2019-02-20T04:04:20.597Z,22.50
2019-02-20T04:06:53.909Z,22.40
2019-02-20T04:09:28.354Z,22.40
2019-02-20T04:12:10.950Z,22.80
2019-02-20T04:17:39.068Z,24.50
2019-02-20T04:20:16.550Z,25.20
2019-02-20T04:22:59.124Z,25.70
2019-02-20T04:25:32.261Z,26.20
2019-02-20T04:28:10.605Z,26.60
2019-02-20T04:30:44.437Z,26.80
2019-02-20T04:33:19.088Z,27.20
2019-02-20T04:35:52.619Z,27.50
2019-02-20T04:38:26.918Z,27.70
2019-02-20T04:41:04.269Z,28.00
2019-02-20T04:43:36.753Z,28.20
2019-02-20T04:46:09.870Z,28.40
2019-02-20T04:48:42.407Z,28.20
2019-02-20T04:51:14.820Z,27.40
2019-02-20T04:53:47.322Z,26.70
2019-02-20T04:56:19.709Z,26.20
2019-02-20T04:58:54.624Z,25.90
2019-02-20T05:01:27.600Z,25.60
2019-02-20T05:04:00.058Z,25.40
2019-02-20T05:06:32.629Z,25.20
2019-02-20T05:09:06.143Z,25.00
2019-02-20T05:11:40.286Z,24.80
2019-02-20T05:14:12.718Z,24.70
2019-02-20T05:16:45.351Z,24.60
2019-02-20T05:19:17.892Z,24.40
2019-02-20T05:21:50.428Z,24.40
2019-02-20T05:24:25.023Z,24.30
2019-02-20T05:26:57.715Z,24.20
2019-02-20T05:29:30.278Z,24.20
2019-02-20T05:32:02.848Z,24.10
2019-02-20T05:34:35.234Z,24.00
2019-02-20T05:37:07.906Z,24.00
2019-02-20T05:39:40.283Z,23.90
2019-02-20T05:42:12.685Z,23.90
2019-02-20T05:44:45.137Z,23.80
2019-02-20T05:47:17.636Z,23.70
2019-02-20T05:49:49.997Z,23.70
2019-02-20T05:52:22.346Z,23.60
2019-02-20T05:54:54.707Z,23.60
2019-02-20T05:57:27.149Z,23.50
2019-02-20T05:59:59.503Z,23.40
2019-02-20T06:02:32.085Z,23.30
2019-02-20T06:05:04.430Z,23.20
2019-02-20T06:07:37.122Z,23.20
2019-02-20T06:10:10.969Z,23.10
2019-02-20T06:12:43.391Z,23.10
2019-02-20T06:15:15.866Z,23.00
2019-02-20T06:17:49.367Z,22.90
2019-02-20T06:20:21.767Z,22.90
2019-02-20T06:22:54.347Z,22.80
2019-02-20T06:25:27.255Z,22.80
2019-02-20T06:27:59.744Z,22.80
2019-02-20T06:30:32.229Z,22.80
2019-02-20T06:33:05.085Z,22.70
2019-02-20T06:35:37.781Z,22.70
2019-02-20T06:38:11.356Z,22.70
2019-02-20T06:40:44.017Z,22.60
2019-02-20T06:43:16.997Z,22.60
2019-02-20T06:45:49.708Z,22.50
2019-02-20T06:48:22.524Z,22.50
2019-02-20T06:50:55.096Z,22.50
2019-02-20T06:53:27.787Z,22.40
2019-02-20T06:56:00.295Z,22.40
2019-02-20T06:58:33.045Z,22.30
2019-02-20T07:01:05.534Z,22.30
2019-02-20T07:03:38.302Z,22.30
2019-02-20T07:06:22.068Z,22.30
2019-02-20T07:09:06.243Z,22.30
2019-02-20T07:11:47.505Z,22.20
2019-02-20T07:14:37.419Z,22.30
2019-02-20T07:17:24.371Z,22.20
2019-02-20T07:20:33.797Z,22.20
2019-02-20T07:23:38.754Z,22.10
2019-02-20T07:26:28.699Z,22.10
2019-02-20T07:29:18.583Z,22.10
2019-02-20T07:31:50.970Z,22.10
2019-02-20T07:34:23.615Z,22.00
2019-02-20T07:36:56.991Z,22.00
2019-02-20T07:39:29.641Z,22.00
2019-02-20T07:42:02.145Z,22.00
2019-02-20T07:44:34.844Z,22.00
2019-02-20T07:47:07.223Z,22.00
2019-02-20T07:49:39.583Z,21.90
2019-02-20T07:52:11.965Z,21.90
2019-02-20T07:54:44.432Z,21.90
2019-02-20T07:57:16.916Z,21.80
2019-02-20T07:59:49.288Z,21.90
2019-02-20T08:02:22.107Z,21.80
2019-02-20T08:04:54.990Z,21.80
2019-02-20T08:07:27.593Z,21.80
2019-02-20T08:09:59.995Z,21.80
2019-02-20T08:12:32.516Z,21.80
2019-02-20T08:15:05.018Z,21.70
2019-02-20T08:17:37.835Z,21.70
2019-02-20T08:20:11.387Z,21.70
2019-02-20T08:22:43.800Z,21.80
2019-02-20T08:25:22.583Z,22.40
2019-02-20T08:27:50.274Z,23.20
2019-02-20T08:30:22.722Z,23.70
2019-02-20T08:32:55.290Z,24.30
2019-02-20T08:35:27.824Z,24.30
2019-02-20T08:38:00.234Z,23.80
2019-02-20T08:40:32.696Z,23.30
2019-02-20T08:43:05.183Z,22.90
2019-02-20T08:45:37.566Z,22.70
2019-02-20T08:48:10.038Z,22.60
2019-02-20T08:50:42.498Z,22.40
2019-02-20T08:53:15.081Z,22.30
2019-02-20T08:55:47.425Z,22.20
2019-02-20T08:58:19.805Z,22.10
2019-02-20T09:00:52.358Z,22.10
2019-02-20T09:03:24.924Z,22.00
2019-02-20T09:05:57.454Z,21.90
2019-02-20T09:08:29.845Z,21.90
2019-02-20T09:11:02.411Z,21.80
2019-02-20T09:13:34.874Z,21.80
2019-02-20T09:16:07.640Z,21.80
2019-02-20T09:18:40.518Z,21.70
2019-02-20T09:21:13.215Z,21.70
2019-02-20T09:23:45.895Z,21.70
2019-02-20T09:26:18.265Z,21.70
2019-02-20T09:28:50.638Z,21.60
2019-02-20T09:31:23.120Z,21.60
2019-02-20T09:33:56.732Z,21.70
2019-02-20T09:36:29.364Z,22.40
2019-02-20T09:39:04.639Z,23.20
2019-02-20T09:41:38.184Z,23.90
2019-02-20T09:44:10.561Z,24.40
2019-02-20T09:46:43.285Z,24.10
2019-02-20T09:49:15.670Z,23.60
2019-02-20T09:51:48.316Z,23.20
2019-02-20T09:54:20.696Z,22.90
2019-02-20T09:56:54.086Z,22.60
2019-02-20T09:59:26.502Z,22.50
2019-02-20T10:01:58.932Z,22.40
2019-02-20T10:04:31.523Z,22.20
2019-02-20T10:07:04.226Z,22.10
2019-02-20T10:09:36.765Z,22.10
2019-02-20T10:12:09.174Z,22.00
2019-02-20T10:14:41.570Z,21.90
2019-02-20T10:17:13.935Z,21.80
2019-02-20T10:19:46.339Z,21.80
2019-02-20T10:22:18.678Z,21.80
2019-02-20T10:24:51.151Z,21.70
2019-02-20T10:27:23.514Z,21.70
2019-02-20T10:29:55.938Z,21.60
2019-02-20T10:32:28.298Z,21.60
2019-02-20T10:35:00.875Z,21.60
2019-02-20T10:37:33.514Z,21.50
2019-02-20T10:40:06.637Z,21.50
2019-02-20T10:42:39.008Z,21.50
2019-02-20T10:45:14.925Z,21.50
2019-02-20T10:47:47.367Z,21.50
2019-02-20T10:50:19.858Z,21.50
2019-02-20T10:52:52.323Z,22.20
2019-02-20T10:55:24.773Z,22.90
2019-02-20T10:57:57.126Z,23.60
2019-02-20T11:00:29.912Z,24.20
2019-02-20T11:03:02.485Z,24.50
2019-02-20T11:05:35.121Z,23.90
2019-02-20T11:08:08.142Z,23.40
2019-02-20T11:10:40.611Z,23.00
2019-02-20T11:13:12.954Z,22.70
2019-02-20T11:15:45.314Z,22.50
2019-02-20T11:18:17.676Z,22.40
2019-02-20T11:20:50.018Z,22.20
2019-02-20T11:23:22.399Z,22.10
2019-02-20T11:25:54.816Z,22.00
2019-02-20T11:28:27.351Z,21.90
2019-02-20T11:30:59.868Z,21.90
2019-02-20T11:33:32.325Z,21.80
2019-02-20T11:36:04.888Z,21.70
2019-02-20T11:38:37.528Z,21.70
2019-02-20T11:41:09.902Z,21.60
2019-02-20T11:43:42.747Z,21.60
2019-02-20T11:46:15.109Z,21.50
2019-02-20T11:48:47.695Z,21.50
2019-02-20T11:51:20.041Z,21.40
2019-02-20T11:53:52.513Z,21.40
2019-02-20T11:56:26.793Z,21.70
2019-02-20T11:58:58.735Z,22.60
2019-02-20T12:01:32.218Z,23.30
2019-02-20T12:04:04.690Z,23.90
2019-02-20T12:06:37.322Z,24.40
2019-02-20T12:09:10.465Z,24.30
2019-02-20T12:11:43.038Z,23.80
2019-02-20T12:14:15.494Z,23.30
2019-02-20T12:16:48.218Z,22.90
2019-02-20T12:19:20.689Z,22.70
2019-02-20T12:21:53.397Z,22.50
2019-02-20T12:24:26.523Z,22.30
2019-02-20T12:26:59.559Z,22.20
2019-02-20T12:29:32.129Z,22.10
2019-02-20T12:32:04.633Z,22.00
2019-02-20T12:34:36.968Z,21.90
2019-02-20T12:37:09.718Z,21.80
2019-02-20T12:39:42.432Z,21.70
2019-02-20T12:42:14.818Z,21.70
2019-02-20T12:44:47.186Z,21.60
2019-02-20T12:47:19.569Z,21.60
2019-02-20T12:49:52.037Z,21.50
2019-02-20T12:52:24.421Z,21.50
2019-02-20T12:54:56.751Z,21.40
2019-02-20T12:57:29.438Z,21.40
2019-02-20T13:00:01.986Z,21.30
2019-02-20T13:02:36.096Z,21.30
2019-02-20T13:05:09.066Z,21.30
2019-02-20T13:07:42.816Z,21.20
2019-02-20T13:10:15.429Z,21.50
2019-02-20T13:12:48.011Z,22.20
2019-02-20T13:15:20.481Z,23.00
2019-02-20T13:17:52.856Z,23.70
2019-02-20T13:20:25.417Z,24.20
2019-02-20T13:22:57.804Z,24.60
2019-02-20T13:25:30.208Z,24.00
2019-02-20T13:28:02.603Z,23.50
2019-02-20T13:30:35.390Z,23.10
2019-02-20T13:33:07.903Z,22.70
2019-02-20T13:35:40.267Z,22.50
2019-02-20T13:38:12.934Z,22.30
2019-02-20T13:40:45.559Z,22.20
2019-02-20T13:43:18.189Z,22.10
2019-02-20T13:45:50.944Z,22.00
2019-02-20T13:48:23.421Z,21.90
2019-02-20T13:50:55.764Z,21.80
2019-02-20T13:53:29.154Z,21.70
2019-02-20T13:56:01.619Z,22.00
2019-02-20T13:58:34.511Z,22.80
2019-02-20T14:01:06.942Z,23.60
2019-02-20T14:03:39.321Z,24.20
2019-02-20T14:06:11.986Z,24.70
2019-02-20T14:08:44.583Z,25.10
2019-02-20T14:11:18.319Z,25.50
2019-02-20T14:13:50.781Z,25.80
2019-02-20T14:16:23.754Z,26.10
2019-02-20T14:18:56.242Z,26.30
2019-02-20T14:21:28.691Z,25.90
2019-02-20T14:24:01.076Z,25.30
2019-02-20T14:26:33.754Z,24.70
2019-02-20T14:29:06.347Z,24.30
2019-02-20T14:31:39.531Z,23.90
2019-02-20T14:34:12.735Z,23.60
2019-02-20T14:36:45.223Z,23.40
2019-02-20T14:39:18.137Z,23.30
2019-02-20T14:41:51.216Z,24.20
2019-02-20T14:44:23.779Z,24.90
2019-02-20T14:46:56.564Z,25.50
2019-02-20T14:49:29.953Z,25.90
2019-02-20T14:52:02.802Z,26.30
2019-02-20T14:54:35.175Z,26.10
2019-02-20T14:57:07.548Z,25.50
2019-02-20T14:59:41.316Z,25.00
2019-02-20T15:02:13.760Z,24.50
2019-02-20T15:04:46.258Z,24.10
2019-02-20T15:07:18.607Z,23.80
2019-02-20T15:09:51.195Z,23.70
2019-02-20T15:12:24.009Z,23.50
2019-02-20T15:14:56.508Z,24.00
2019-02-20T15:17:29.038Z,24.80
2019-02-20T15:20:01.447Z,25.40
2019-02-20T15:22:34.458Z,25.90
2019-02-20T15:25:08.484Z,26.40
2019-02-20T15:27:42.138Z,26.70
2019-02-20T15:30:18.757Z,27.00
2019-02-20T15:32:51.326Z,27.30
2019-02-20T15:35:24.498Z,27.60
2019-02-20T15:37:57.227Z,27.80
2019-02-20T15:40:29.777Z,28.00
2019-02-20T15:43:02.724Z,28.20
2019-02-20T15:45:35.354Z,28.40
2019-02-20T15:48:07.886Z,28.50
2019-02-20T15:50:40.483Z,28.80
2019-02-20T15:53:13.016Z,29.00
2019-02-20T15:55:46.027Z,29.20
2019-02-20T15:58:18.506Z,28.60
2019-02-20T16:00:50.824Z,27.80
2019-02-20T16:03:23.337Z,27.20
2019-02-20T16:05:55.629Z,26.80
2019-02-20T16:08:27.804Z,26.40
2019-02-20T16:11:00.439Z,26.20
2019-02-20T16:13:32.938Z,25.90
2019-02-20T16:16:05.557Z,25.80
2019-02-20T16:18:37.876Z,25.60
2019-02-20T16:21:11.436Z,25.40
2019-02-20T16:23:46.770Z,25.20
2019-02-20T16:26:19.253Z,25.00
2019-02-20T16:28:51.513Z,24.90
2019-02-20T16:31:24.569Z,24.80
2019-02-20T16:33:56.967Z,24.70
2019-02-20T16:36:29.386Z,24.60
2019-02-20T16:39:01.601Z,24.50
2019-02-20T16:41:35.350Z,24.40
2019-02-20T16:44:07.917Z,24.40
2019-02-20T16:46:40.302Z,24.30
2019-02-20T16:49:12.501Z,24.20
2019-02-20T16:51:45.049Z,24.20
2019-02-20T16:54:17.275Z,24.20
2019-02-20T16:56:49.713Z,24.10
2019-02-20T16:59:22.209Z,24.10
2019-02-20T17:01:54.586Z,24.00
2019-02-20T17:04:26.833Z,23.90
2019-02-20T17:06:59.177Z,23.80
2019-02-20T17:09:31.631Z,23.80
2019-02-20T17:12:03.983Z,23.70
2019-02-20T17:14:36.641Z,23.70
2019-02-20T17:17:08.961Z,23.50
2019-02-20T17:19:41.254Z,23.50
2019-02-20T17:22:13.558Z,23.50
2019-02-20T17:24:46.148Z,23.40
2019-02-20T17:27:18.369Z,23.40
2019-02-20T17:29:50.538Z,23.30
2019-02-20T17:32:23.032Z,23.30
2019-02-20T17:34:55.358Z,23.20
2019-02-20T17:37:27.943Z,23.10
2019-02-20T17:40:00.317Z,23.10
2019-02-20T17:42:32.990Z,23.00
2019-02-20T17:45:07.077Z,23.00
2019-02-20T17:47:39.762Z,23.00
2019-02-20T17:50:19.485Z,23.00
2019-02-20T17:52:51.680Z,23.00
2019-02-20T17:55:24.144Z,22.90
2019-02-20T17:57:56.344Z,22.90
2019-02-20T18:00:32.108Z,22.90
2019-02-20T18:03:04.775Z,22.90
2019-02-20T18:05:37.422Z,22.80
2019-02-20T18:08:09.924Z,22.80
2019-02-20T18:10:42.352Z,22.80
2019-02-20T18:13:14.875Z,22.70
2019-02-20T18:15:47.230Z,22.70
2019-02-20T18:18:19.830Z,22.70
2019-02-20T18:20:52.087Z,22.70
2019-02-20T18:23:24.392Z,22.70
2019-02-20T18:25:56.580Z,22.70
2019-02-20T18:28:29.059Z,22.70
2019-02-20T18:31:01.230Z,22.70
2019-02-20T18:33:33.423Z,22.70
2019-02-20T18:36:05.682Z,22.70
2019-02-20T18:38:38.306Z,22.70
2019-02-20T18:41:10.921Z,22.70
2019-02-20T18:43:43.103Z,22.70
2019-02-20T18:46:15.921Z,22.60
2019-02-20T18:48:48.318Z,22.60
2019-02-20T18:51:20.573Z,22.60
2019-02-20T18:53:52.786Z,22.60
2019-02-20T18:56:25.277Z,22.60
2019-02-20T18:58:57.641Z,22.60
2019-02-20T19:01:30.023Z,22.60
2019-02-20T19:04:02.384Z,22.60
2019-02-20T19:06:34.736Z,22.60
2019-02-20T19:09:10.059Z,22.60
2019-02-20T19:11:54.249Z,22.70
2019-02-20T19:14:47.524Z,22.70
2019-02-20T19:17:39.523Z,22.70
2019-02-20T19:20:21.089Z,22.70
2019-02-20T19:22:55.801Z,22.70
2019-02-20T19:28:44.221Z,22.70
2019-02-20T19:31:33.933Z,22.70
2019-02-20T19:34:14.423Z,22.80
2019-02-20T19:37:13.194Z,22.70
2019-02-20T19:40:03.159Z,22.70
2019-02-20T19:42:53.136Z,22.70
2019-02-20T19:45:30.738Z,22.70
2019-02-20T19:48:20.199Z,22.70
2019-02-20T19:51:11.438Z,22.70
2019-02-20T19:54:03.964Z,22.60
2019-02-20T19:56:39.699Z,22.70
2019-02-20T19:59:32.485Z,22.80
2019-02-20T20:02:34.321Z,22.80
2019-02-20T20:05:32.563Z,22.70
2019-02-20T20:08:19.210Z,22.80
2019-02-20T20:10:56.911Z,22.80
2019-02-20T20:13:49.417Z,22.80
2019-02-20T20:16:45.016Z,22.80
2019-02-20T20:19:36.038Z,22.90
2019-02-20T20:22:44.911Z,22.90
2019-02-20T20:25:24.501Z,22.90
2019-02-20T20:28:16.995Z,23.00
2019-02-20T20:31:01.866Z,23.10
2019-02-20T20:33:48.822Z,23.10
2019-02-20T20:36:53.392Z,23.20
2019-02-20T20:39:47.616Z,23.20
2019-02-20T20:42:31.207Z,23.30
2019-02-20T20:45:11.854Z,23.30
2019-02-20T20:47:52.583Z,23.40
2019-02-20T20:50:30.325Z,23.40
2019-02-20T20:53:25.816Z,23.50
2019-02-20T20:56:06.373Z,23.50
2019-02-20T20:58:43.854Z,23.50
2019-02-20T21:01:36.873Z,23.60
2019-02-20T21:04:33.122Z,23.60
2019-02-20T21:07:26.015Z,23.60
2019-02-20T21:10:00.854Z,23.70
2019-02-20T21:12:57.971Z,23.70
2019-02-20T21:15:41.337Z,23.70
2019-02-20T21:18:21.718Z,23.70
2019-02-20T21:21:14.352Z,23.80
2019-02-20T21:24:14.524Z,23.80
2019-02-20T21:27:22.109Z,23.80
2019-02-20T21:30:14.966Z,23.80
2019-02-20T21:32:55.797Z,23.90
2019-02-20T21:35:33.330Z,23.90
2019-02-20T21:38:32.037Z,23.90
2019-02-20T21:41:09.514Z,23.90
2019-02-20T21:44:06.586Z,23.90
2019-02-20T21:46:50.105Z,24.00
2019-02-20T21:49:33.709Z,24.00
2019-02-20T21:52:33.435Z,24.00
2019-02-20T21:55:40.402Z,24.00
2019-02-20T21:58:24.246Z,24.00
2019-02-20T22:00:58.971Z,24.00
2019-02-20T22:03:50.217Z,24.10
2019-02-20T22:06:24.933Z,24.10
2019-02-20T22:09:17.482Z,24.10
2019-02-20T22:12:11.926Z,24.10
2019-02-20T22:14:49.447Z,24.10
2019-02-20T22:17:42.170Z,24.10
2019-02-20T22:20:22.442Z,24.10
2019-02-20T22:23:05.876Z,24.10
2019-02-20T22:26:11.026Z,24.10
2019-02-20T22:28:51.857Z,24.10
2019-02-20T22:31:52.705Z,24.10
2019-02-20T22:34:27.902Z,24.10
2019-02-20T22:37:02.701Z,24.10
2019-02-20T22:39:43.208Z,24.00
2019-02-20T22:42:20.661Z,24.00
2019-02-20T22:44:58.381Z,24.00
2019-02-20T22:47:45.224Z,24.00
2019-02-20T22:50:51.501Z,24.00
2019-02-20T22:53:45.739Z,24.00
2019-02-20T22:56:20.714Z,23.90
2019-02-20T22:59:11.809Z,23.90
2019-02-20T23:01:55.447Z,23.90
2019-02-20T23:04:30.253Z,23.90
2019-02-20T23:07:26.295Z,23.80
2019-02-20T23:10:06.845Z,23.80
2019-02-20T23:12:59.190Z,23.80
2019-02-20T23:15:31.710Z,23.80
2019-02-20T23:18:04.014Z,23.70
2019-02-20T23:20:36.697Z,23.70
2019-02-20T23:23:08.876Z,23.70
2019-02-20T23:25:41.435Z,23.70
2019-02-20T23:28:13.738Z,23.60
2019-02-20T23:30:46.755Z,23.60
2019-02-20T23:33:19.588Z,23.50
2019-02-20T23:35:52.147Z,23.50
2019-02-20T23:38:24.690Z,23.40
2019-02-20T23:40:57.548Z,23.40
2019-02-20T23:43:30.049Z,23.40
2019-02-20T23:46:02.507Z,23.30
2019-02-20T23:48:35.350Z,23.30
2019-02-20T23:51:07.734Z,23.30
2019-02-20T23:53:40.152Z,23.20
2019-02-20T23:56:12.537Z,23.20
2019-02-20T23:58:44.922Z,23.20
